Balmorhea, TX (79718)

1:22 AM CST on January 24, 2017 (GMT -0600)
Pecos Municipal | | Change Station
Active Advisory: Wind Advisory

Elev 2612 ft 31.38 °N, 103.51 °W | Updated 7 minutes ago

Clear
Clear
44 °F
Feels Like 40 °F
N
8
Wind Variable Wind from West

Today
High -- | Low -- °F
--% Chance of Precip.
Yesterday
High -- | Low -- °F
Precip. -- in
Pressure 29.68 in
Visibility 10.0 miles
Clouds Clear
Windchill 40 °F
Dew Point 34 °F
Humidity 67%
Rainfall 0.00 in
Snow Depth Not available.
7:50 AM 6:23 PM
Waning Crescent, 13% visible
METAR KPEQ 240715Z AUTO 26007KT 10SM CLR 07/01 A2968 RMK AO2 T00670010
Pressure 29.68 in
Visibility 10.0 miles
Clouds Clear
Windchill 40 °F
Dew Point 34 °F
Humidity 67%
Rainfall 0.00 in
Snow Depth Not available.
7:50 AM 6:23 PM
Waning Crescent, 13% visible
METAR KPEQ 240715Z AUTO 26007KT 10SM CLR 07/01 A2968 RMK AO2 T00670010

Get Your Daily Forecast Email!

Thanks for signing up!

Be on the lookout for a verification email in your inbox.

You'll start receiving the daily forecast at 8 AM.

×

10-Day Weather Forecast

Almanac

Astronomy

Jan. 24, 2017 Rise Set
Actual Time
Civil Twilight
Nautical Twilight
Astronomical Twilight
Moon
Length of Visible Light
Length of Day
Tomorrow will be .
, % of the Moon is Illuminated

Today's Extremes

State Highs State Lows

Community

WunderPhotos

Upload Photos

1,962,540 photos uploaded!

WunderBlog® & News

Nearby

Air Quality

  Air Quality AQ Index Pollutant
Not available.

Snow Depth

Station Depth Elevation

Earthquake Activity

City Distance Mag. Time & Date
Minimum magnitude displayed is 2.5.

Coastal Water Temperatures

Place Temperature

Stations

Nearby Weather Stations

Station Location Temp. Windchill Dew Point Humidity Wind Precip. Elev Updated Type
                   

Watches & Warnings

Wind Advisory
Issued: 2:09 PM MST Jan. 23, 2017 – National Weather Service

... Wind Advisory in effect from midnight CST /11 PM MST/ tonight
to 6 PM CST /5 PM MST/ Tuesday...

* timing... from midnight CST /11 PM MST/ tonight to 6 PM CST /5
PM MST/ Tuesday.

* Winds... southwest to west 30 to 40 mph with gusts to around 55
mph.

* Impacts... secure lawn furniture... garbage cans or other objects
which could be blown about by the wind.

Precautionary/preparedness actions...

A Wind Advisory means that winds of 30 mph are expected. Winds
this strong can make driving difficult... especially for high
profile vehicles. Use extra caution.